Henderson, Nevada Weather observations

Data are for observation ending at time listed.
 Day   Time    Ave.   Ave.  Ave.  Vector   Max.   Stn.    Total    Solar   Ave.  
  of    of     Air    Rel.  Wind   Wind    Wind   Baro.  Precip.   Rad.    Soil  
Year   Day     Temp.  Hum.  Speed  Dir.    Gust   Pres.                    Temp. 
2016   (PST)    F      %     mph   deg.    mph     mb.     in.     W/m2     F   
------------------------------------------------------------------------------
 269   21:30   77.3    16    3.0   267      5.2   943.3    0.00       0    72.6
 269   21:40   76.2    18    2.4   283      4.5   943.4    0.00       0    72.4
 269   21:50   75.6    19    2.4   300      3.9   943.4    0.00       0    71.8
 269   22:00   76.1    18    3.6   305      5.8   943.4    0.00       0    71.7
 269   22:10   76.0    18    3.4   308      6.4   943.4    0.00       0    71.7
 269   22:20   76.2    17    2.9   314      7.4   943.4    0.00       0    71.6
 269   22:30   75.7    18    2.3   306      7.9   943.4    0.00       0    71.5
 269   22:40   75.7    17    2.6   316      7.2   943.3    0.00       0    71.2
 269   22:50   75.6    17    2.4   304      6.5   943.4    0.00       0    71.2
 269   23:00   75.5    17    3.0   297      5.4   943.4    0.00       0    71.0
 269   23:10   75.2    18    2.9   308      7.1   943.5    0.00       0    70.9
 269   23:20   75.1    18    3.3   303      7.4   943.6    0.00       0    70.9
 269   23:30   75.1    18    3.7   322      8.9   943.5    0.00       0    70.9
 269   23:40   75.8    17    3.8   342      8.6   943.5    0.00       0    70.9
 269   23:50   75.5    17    3.0   340      6.9   943.5    0.00       0    71.0
 270    0:00   75.7    17    4.0   340      9.3   943.6    0.00       0    71.2
 270    0:10   75.9    17    3.9   347      9.9   943.5    0.00       0    71.4
 270    0:20   75.6    18    2.8   344      6.5   943.5    0.00       0    71.4
 270    0:30   75.0    18    1.9    12      5.9   943.5    0.00       0    71.1
 270    0:40   74.4    19    2.4    16      9.6   943.6    0.00       0    70.6
 270    0:50   74.5    19    2.8    11      8.8   943.4    0.00       0    70.5
 270    1:00   74.0    20    2.6   348      7.0   943.5    0.00       0    70.3
 270    1:10   73.4    20    2.7   328      5.6   943.4    0.00       0    70.0
 270    1:20   72.4    21    3.4   270      5.7   943.6    0.00       0    69.6
 270    1:30   71.7    22    2.6   305      4.7   943.5    0.00       0    69.0
 270    1:40   72.4    20    1.8   331      5.3   943.6    0.00       0    68.5
 270    1:50   72.5    20    2.0   323      7.0   943.5    0.00       0    68.3
 270    2:00   70.9    22    1.2   318      2.2   943.4    0.00       0    67.6
 270    2:10   70.4    22    2.3   333      6.0   943.4    0.00       0    66.9
 270    2:20   71.9    20    2.7   341      7.6   943.4    0.00       0    66.8
 270    2:30   71.3    22    1.8   300      3.2   943.5    0.00       0    67.0
 270    2:40   70.7    22    2.5   322      5.6   943.4    0.00       0    66.6
 270    2:50   71.1    22    3.4   304      6.2   943.5    0.00       0    66.8
 270    3:00   70.8    23    2.2   307      4.5   943.4    0.00       0    66.8
 270    3:10   70.1    24    1.9   284      3.4   943.5    0.00       0    66.3
 270    3:20   70.1    24    2.6   277      4.8   943.4    0.00       0    66.0
 270    3:30   70.3    23    2.6   295      6.1   943.5    0.00       0    65.9
 270    3:40   70.1    24    2.9   290      5.8   943.6    0.00       0    65.9
 270    3:50   70.2    24    3.3   292      5.7   943.6    0.00       0    65.9
 270    4:00   70.6    24    3.3   292      5.9   943.7    0.00       0    66.0
 270    4:10   71.0    24    4.0   302      9.8   943.8    0.00       0    66.2
 270    4:20   71.3    24    3.6   316      6.8   943.9    0.00       0    66.6
 270    4:30   70.9    24    2.7   329      7.0   943.9    0.00       0    66.7
 270    4:40   70.2    25    1.7   310      3.8   943.9    0.00       0    66.5
 270    4:50   69.2    26    1.4   271      2.9   944.0    0.00       0    66.1
 270    5:00   68.7    26    1.3   260      3.1   944.1    0.00       0    65.2
 270    5:10   68.2    27    0.4   250      1.4   944.2    0.00       0    64.6
 270    5:20   66.2    29    0.8   219      2.3   944.2    0.00       0    63.7
 270    5:30   65.3    31    0.6   247      3.3   944.3    0.00       4    62.8
 270    5:40   66.5    28    2.4   277      4.7   944.3    0.00       7    62.3
 270    5:50   68.1    27    2.9   278      5.4   944.4    0.00      13    62.6
 270    6:00   68.6    27    3.4   277      5.8   944.5    0.00      20    63.2
 270    6:10   69.2    26    3.4   277      4.8   944.6    0.00      41    64.0
 270    6:20   70.2    26    2.9   287      4.8   944.6    0.00     109    64.8
 270    6:30   70.3    26    2.1   300      3.9   944.7    0.00     149    65.2
 270    6:40   71.2    26    2.2   300      4.2   944.8    0.00     185    65.9
 270    6:50   72.4    24    2.4   307      5.0   944.8    0.00     222    68.1
 270    7:00   73.3    24    2.9   303      5.0   944.9    0.00     260    71.9
 270    7:10   74.1    23    3.1   310      5.6   945.0    0.00     297    75.1
 270    7:20   74.9    22    2.6   309      6.1   945.0    0.00     332    77.5
 270    7:30   75.3    22    3.2   308      7.5   945.1    0.00     368    79.4
 270    7:40   75.6    21    4.3   311      7.4   945.2    0.00     404    81.1
 270    7:50   75.5    22    4.3   304      7.7   945.2    0.00     441    82.2
 270    8:00   76.0    21    4.1   300      7.7   945.2    0.00     476    83.1
 270    8:10   76.6    21    4.3   300      8.6   945.3    0.00     511    84.1
 270    8:20   77.4    20    4.1   309      7.5   945.2    0.00     544    85.2
 270    8:30   77.8    20    3.9   305      8.0   945.2    0.00     578    86.2
 270    8:40   78.0    20    3.6   312      7.2   945.4    0.00     609    87.0
 270    8:50   78.6    19    3.9   329      9.3   945.3    0.00     639    87.8
 270    9:00   79.5    18    3.0   324      7.2   945.2    0.00     669    88.9
 270    9:10   79.7    18    4.5   312      8.8   945.2    0.00     696    89.8
 270    9:20   80.2    18    4.2   316      8.4   945.1    0.00     724    90.2
 270    9:30   80.8    18    4.3   312      9.4   945.1    0.00     747    90.8
 270    9:40   81.3    18    3.9   312      7.3   945.0    0.00     771    91.3
 270    9:50   82.2    17    3.7   317      7.9   944.9    0.00     791    92.3
 270   10:00   83.5    15    4.7   332     11.5   944.7    0.00     815    93.2
 270   10:10   83.8    15    5.4   330      9.9   944.7    0.00     832    93.6
 270   10:20   84.5    14    4.6   345     10.7   944.6    0.00     848    94.1
 270   10:30   84.5    15    4.4   331      9.4   944.3    0.00     863    94.5
 270   10:40   85.3    14    3.7     1     10.1   944.3    0.00     876    94.9
 270   10:50   86.4    14    2.8    12      8.3   944.1    0.00     889    95.8
 270   11:00   86.2    14    4.1   330      9.6   944.0    0.00     894    96.4
 270   11:10   87.3    13    2.6    50      7.3   943.9    0.00     903    96.7
 270   11:20   87.8    13    2.8    20      8.9   943.7    0.00     907    97.5
 270   11:30   87.7    13    3.2    10      8.1   943.7    0.00     914    97.8
 270   11:40   88.3    13    2.7     8      7.8   943.5    0.00     916    98.1
 270   11:50   88.7    13    2.4    35      8.6   943.3    0.00     915    98.5
 270   12:00   88.6    13    3.0    60      8.0   943.1    0.00     907    98.5
 270   12:10   88.7    13    2.5   338      6.8   943.0    0.00     903    98.6
 270   12:20   88.4    13    3.9   334      8.3   942.8    0.00     900    98.3
 270   12:30   89.1    13    3.1     8      8.8   942.6    0.00     889    98.1
 270   12:40   89.2    13    3.3   333     12.0   942.3    0.00     878    98.0
 270   12:50   89.3    13    3.1     3      7.2   942.2    0.00     865    98.2
 270   13:00   89.7    13    4.4    77      9.5   942.0    0.00     849    98.0
 270   13:10   89.5    13    3.5    62     10.0   941.8    0.00     834    97.6
 270   13:20   89.8    13    2.9    25      9.0   941.7    0.00     816    97.5
 270   13:30   90.3    13    2.8    59      7.1   941.5    0.00     796    97.5
 270   13:40   89.8    13    3.3    40      7.7   941.4    0.00     775    97.1
 270   13:50   90.4    13    2.8    14      5.7   941.2    0.00     750    97.2
 270   14:00   91.0    13    3.2    54      7.7   941.0    0.00     726    97.1
 270   14:10   91.0    13    3.6    79      9.1   941.0    0.00     698    96.9
 270   14:20   91.3    12    2.4    46      5.7   941.0    0.00     670    96.8
 270   14:30   90.9    12    3.2    54      8.8   940.7    0.00     638    96.7
 270   14:40   91.1    12    2.3    34      6.8   940.6    0.00     609    96.4
 270   14:50   91.6    12    2.1    15      7.5   940.5    0.00     577    96.4
 270   15:00   91.6    12    2.1    49      6.7   940.4    0.00     544    96.3
 270   15:10   91.8    12    1.2    71      3.8   940.1    0.00     510    96.2
 270   15:20   92.1    12    2.0    50      7.5   940.0    0.00     474    96.2
 270   15:30   91.7    12    2.1    66      5.6   939.9    0.00     438    95.9
 270   15:40   91.0    12    2.9    94      7.3   939.8    0.00     402    95.5
 270   15:50   91.8    12    1.5    39      6.8   939.6    0.00     364    95.0
 270   16:00   91.4    12    2.6     9      7.5   939.6    0.00     327    94.6
 270   16:10   91.2    12    2.6    14      6.4   939.5    0.00     289    94.2
 270   16:20   91.1    12    2.7     8      6.4   939.3    0.00     252    93.7
 270   16:30   90.9    12    2.4    45      6.3   939.2    0.00     215    93.0
 270   16:40   90.1    12    2.0    49      6.9   939.2    0.00     177    92.1
 270   16:50   89.8    12    2.4     8      6.4   939.1    0.00     142    91.5
 270   17:00   89.6    12    2.2   339      4.4   939.0    0.00     103    90.7
 270   17:10   89.2    12    2.0   341      5.3   939.0    0.00      66    89.7
 270   17:20   87.7    14    2.2   308      4.0   939.1    0.00      16    88.2
 270   17:30   86.0    15    1.9   313      3.9   938.9    0.00       7    86.1
 270   17:40   85.1    15    1.3   309      2.2   938.8    0.00       7    84.3
 270   17:50   84.4    15    1.3   300      2.6   938.8    0.00       3    82.8
 270   18:00   84.1    16    1.6   287      2.3   938.8    0.00       0    81.6
 270   18:10   83.5    16    1.6   268      2.2   938.8    0.00       0    80.3
 270   18:20   83.5    15    1.9   272      2.5   938.8    0.00       0    79.4
 270   18:30   83.3    16    2.0   272      2.6   938.8    0.00       0    78.7
 270   18:40   82.9    16    1.7   275      2.8   938.9    0.00       0    78.3
 270   18:50   82.3    16    1.7   275      2.4   938.9    0.00       0    77.5
 270   19:00   82.0    16    1.7   271      3.2   938.9    0.00       0    77.0
 270   19:10   81.7    17    1.2   269      3.0   938.9    0.00       0    76.4
 270   19:20   80.5    17    1.3   271      2.6   939.0    0.00       0    75.5
 270   19:30   80.7    17    1.7   272      2.9   939.1    0.00       0    75.1
 270   19:40   80.7    18    0.7   262      2.4   939.1    0.00       0    74.9
 270   19:50   79.0    19    0.1   121      0.9   939.1    0.00       0    74.3
 270   20:00   78.2    20    0.3   174      1.1   939.2    0.00       0    73.6
 270   20:10   78.0    21    1.0   112      2.9   939.1    0.00       0    73.0
 270   20:20   77.6    20    0.1   165      1.0   939.3    0.00       0    72.6
 270   20:30   76.8    22    0.2   272      1.5   939.2    0.00       0    72.2
 270   20:40   76.0    22    0.1   252      1.5   939.2    0.00       0    71.6
 270   20:50   76.7    21    1.2   171      3.1   939.1    0.00       0    71.2
 270   21:00   77.7    20    1.9   197      3.4   939.1    0.00       0    71.1
 270   21:10   76.9    21    0.6   122      2.5   939.1    0.00       0    70.9
 270   21:20   76.2    21    0.1   109      0.9   939.1    0.00       0    70.7

Return to Henderson, Nevada graphs page.


Western Regional Climate Center,wrcc@dri.edu